Aviation Digital Data Service (ADDS)

Output produced by METARs form (0847 UTC 25 April 2015)
found at http://aviationweather.gov/adds/metars/
 
KGSO 250540Z 2506/2606 13003KT P6SM BKN080 
     FM251200 06005KT P6SM -RA OVC050 
     FM251600 09005KT 4SM -RA BR OVC007 
     FM252300 18006KT 4SM BR OVC003